Time;durP1;ratioP1;P1;durP2;ratioP2;P2;SDS_P1;SDS_P2;PMS_P1;PMS_P2;Temp;Humidity;BMP_temperature;BMP_pressure;BME280_temperature;BME280_humidity;BME280_pressure;Samples;Min_cycle;Max_cycle;Signal;HPM_P1;HPM_P2
2023/05/25 00:01:33;;;;;;;13.30;3.20;;;;;;;;;;5062978;28;20183;-74
2023/05/25 00:03:59;;;;;;;5.20;3.60;;;;;;;;;;5075679;28;20272;-74
2023/05/25 00:06:24;;;;;;;7.93;3.40;;;;;;;;;;5065053;28;20269;-74
2023/05/25 00:08:53;;;;;;;9.07;3.80;;;;;;;;;;5067712;28;20211;-74
2023/05/25 00:11:22;;;;;;;8.07;3.47;;;;;;;;;;5068270;28;20188;-74
2023/05/25 00:13:47;;;;;;;6.30;3.37;;;;;;;;;;5086403;28;20168;-75
2023/05/25 00:16:12;;;;;;;6.93;3.43;;;;;;;;;;5093339;28;20179;-76
2023/05/25 00:18:37;;;;;;;7.73;4.00;;;;;;;;;;5071161;28;20188;-76
2023/05/25 00:21:05;;;;;;;4.87;2.90;;;;;;;;;;5057413;28;20236;-76
2023/05/25 00:23:30;;;;;;;4.10;3.00;;;;;;;;;;5068314;28;20263;-76
2023/05/25 00:25:56;;;;;;;4.93;3.23;;;;;;;;;;5071149;28;20217;-76
2023/05/25 00:28:21;;;;;;;8.27;3.73;;;;;;;;;;5083820;28;20200;-76
2023/05/25 00:30:46;;;;;;;5.90;3.57;;;;;;;;;;5061503;28;20190;-76
2023/05/25 00:33:11;;;;;;;5.30;3.53;;;;;;;;;;5084033;28;20276;-76
2023/05/25 00:35:37;;;;;;;4.67;3.00;;;;;;;;;;5085123;28;20182;-76
2023/05/25 00:38:02;;;;;;;6.80;3.50;;;;;;;;;;5086276;28;20226;-76
2023/05/25 00:40:28;;;;;;;8.67;4.33;;;;;;;;;;5067013;28;20175;-76
2023/05/25 00:42:53;;;;;;;4.70;3.43;;;;;;;;;;5065715;28;20205;-76
2023/05/25 00:45:18;;;;;;;7.93;3.40;;;;;;;;;;5090433;28;20210;-76
2023/05/25 00:47:44;;;;;;;5.37;2.90;;;;;;;;;;5065701;28;20238;-76
2023/05/25 00:50:13;;;;;;;5.17;3.10;;;;;;;;;;5071608;28;20232;-76
2023/05/25 00:52:39;;;;;;;8.57;3.53;;;;;;;;;;5092765;28;20189;-76
2023/05/25 00:55:05;;;;;;;11.47;3.60;;;;;;;;;;5089781;28;20177;-76
2023/05/25 00:57:32;;;;;;;6.87;3.40;;;;;;;;;;5070571;28;20200;-76
2023/05/25 00:59:58;;;;;;;5.47;3.30;;;;;;;;;;5090704;28;20201;-76
2023/05/25 01:02:24;;;;;;;6.17;3.47;;;;;;;;;;5071452;28;20206;-76
2023/05/25 01:04:52;;;;;;;8.03;3.47;;;;;;;;;;5090297;28;20178;-76
2023/05/25 01:07:21;;;;;;;7.03;3.60;;;;;;;;;;5090469;28;20182;-76
2023/05/25 01:09:47;;;;;;;8.07;3.37;;;;;;;;;;5085508;28;20207;-76
2023/05/25 01:12:13;;;;;;;5.87;3.40;;;;;;;;;;5087813;28;20179;-76
2023/05/25 01:14:39;;;;;;;8.10;3.30;;;;;;;;;;5068300;28;20203;-76
2023/05/25 01:17:05;;;;;;;7.13;4.03;;;;;;;;;;5068371;28;20182;-76
2023/05/25 01:19:32;;;;;;;7.60;3.30;;;;;;;;;;5091668;28;20173;-76
2023/05/25 01:21:57;;;;;;;7.17;3.23;;;;;;;;;;5084265;28;20174;-76
2023/05/25 01:24:43;;;;;;;6.03;3.13;;;;;;;;;;5069466;28;20178;-76
2023/05/25 01:27:18;;;;;;;6.43;4.20;;;;;;;;;;5071705;28;20182;-76
2023/05/25 01:29:44;;;;;;;8.03;3.07;;;;;;;;;;5070539;28;20180;-76
2023/05/25 01:32:11;;;;;;;10.60;3.60;;;;;;;;;;5066224;28;20182;-76
2023/05/25 01:34:36;;;;;;;7.53;4.00;;;;;;;;;;5093692;28;20178;-76
2023/05/25 01:37:02;;;;;;;6.27;3.20;;;;;;;;;;5084450;28;20382;-76
2023/05/25 01:39:27;;;;;;;5.93;3.07;;;;;;;;;;5073146;28;20229;-76
2023/05/25 01:41:52;;;;;;;8.80;3.73;;;;;;;;;;5074162;28;20181;-76
2023/05/25 01:44:18;;;;;;;7.43;3.53;;;;;;;;;;5074144;28;20185;-76
2023/05/25 01:46:43;;;;;;;8.83;3.30;;;;;;;;;;5083026;28;20252;-76
2023/05/25 01:49:12;;;;;;;5.53;3.53;;;;;;;;;;5073709;28;20206;-76
2023/05/25 01:51:41;;;;;;;8.07;3.83;;;;;;;;;;5091223;28;20182;-76
2023/05/25 01:54:10;;;;;;;5.00;3.57;;;;;;;;;;5085305;28;20356;-76
2023/05/25 01:56:37;;;;;;;8.90;4.33;;;;;;;;;;5063087;28;20188;-76
2023/05/25 01:59:02;;;;;;;6.83;3.27;;;;;;;;;;5081627;28;20185;-76
2023/05/25 02:01:29;;;;;;;6.17;3.33;;;;;;;;;;5060407;28;20193;-76
2023/05/25 02:03:55;;;;;;;8.47;3.97;;;;;;;;;;5085167;28;20232;-76
2023/05/25 02:06:20;;;;;;;7.23;3.70;;;;;;;;;;5059680;28;20255;-76
2023/05/25 02:08:45;;;;;;;5.83;4.00;;;;;;;;;;5080349;28;20284;-76
2023/05/25 02:11:11;;;;;;;10.63;4.23;;;;;;;;;;5071015;28;20237;-76
2023/05/25 02:13:37;;;;;;;5.53;3.23;;;;;;;;;;5070189;28;20199;-76
2023/05/25 02:16:02;;;;;;;7.43;3.33;;;;;;;;;;5088246;28;20171;-76
2023/05/25 02:18:27;;;;;;;8.67;3.73;;;;;;;;;;5058273;28;20212;-76
2023/05/25 02:20:53;;;;;;;5.47;3.53;;;;;;;;;;5089745;28;20280;-76
2023/05/25 02:23:18;;;;;;;5.53;3.23;;;;;;;;;;5073385;28;20182;-76
2023/05/25 02:25:43;;;;;;;8.77;3.37;;;;;;;;;;5086226;28;20181;-76
2023/05/25 02:28:09;;;;;;;8.87;4.00;;;;;;;;;;5068931;28;20206;-76
2023/05/25 02:30:34;;;;;;;6.13;3.87;;;;;;;;;;5068919;28;20239;-76
2023/05/25 02:33:01;;;;;;;4.10;3.33;;;;;;;;;;5090975;28;20177;-76
2023/05/25 02:35:26;;;;;;;6.30;3.47;;;;;;;;;;5068599;28;20241;-76
2023/05/25 02:37:51;;;;;;;12.03;3.43;;;;;;;;;;5088740;28;20352;-76
2023/05/25 02:40:16;;;;;;;12.57;4.07;;;;;;;;;;5065422;28;20214;-76
2023/05/25 02:42:42;;;;;;;10.53;3.80;;;;;;;;;;5084386;28;20185;-76
2023/05/25 02:45:09;;;;;;;8.53;3.93;;;;;;;;;;5081480;28;20204;-76
2023/05/25 02:47:34;;;;;;;10.33;3.50;;;;;;;;;;5074152;28;20209;-76
2023/05/25 02:50:00;;;;;;;7.90;3.40;;;;;;;;;;5073263;28;20189;-76
2023/05/25 02:52:25;;;;;;;8.60;3.57;;;;;;;;;;5090131;28;20180;-76
2023/05/25 02:54:50;;;;;;;6.53;3.27;;;;;;;;;;5062775;28;20177;-76
2023/05/25 02:57:15;;;;;;;7.73;3.70;;;;;;;;;;5070281;28;20185;-76
2023/05/25 02:59:41;;;;;;;7.87;3.47;;;;;;;;;;5064664;28;20178;-76
2023/05/25 03:02:06;;;;;;;6.03;3.50;;;;;;;;;;5083449;28;20177;-76
2023/05/25 03:04:33;;;;;;;6.87;3.90;;;;;;;;;;5077261;28;20184;-76
2023/05/25 03:06:58;;;;;;;7.50;3.40;;;;;;;;;;5090520;28;20180;-76
2023/05/25 03:09:23;;;;;;;5.63;3.90;;;;;;;;;;5073161;28;20208;-76
2023/05/25 03:11:48;;;;;;;7.37;3.97;;;;;;;;;;5084980;28;20170;-76
2023/05/25 03:14:14;;;;;;;7.30;3.53;;;;;;;;;;5067471;28;20199;-76
2023/05/25 03:16:39;;;;;;;8.27;3.80;;;;;;;;;;5063816;28;20188;-76
2023/05/25 03:19:04;;;;;;;10.07;4.27;;;;;;;;;;5084401;28;20184;-76
2023/05/25 03:21:30;;;;;;;5.90;3.80;;;;;;;;;;5072085;28;20222;-76
2023/05/25 03:23:55;;;;;;;5.50;3.40;;;;;;;;;;5069629;28;20210;-76
2023/05/25 03:26:20;;;;;;;5.17;3.30;;;;;;;;;;5070472;28;20180;-76
2023/05/25 03:28:46;;;;;;;8.37;4.13;;;;;;;;;;5068191;28;20207;-76
2023/05/25 03:31:11;;;;;;;8.87;3.70;;;;;;;;;;5064415;28;20204;-76
2023/05/25 03:33:37;;;;;;;8.03;3.63;;;;;;;;;;5084694;28;20268;-76
2023/05/25 03:36:06;;;;;;;5.93;3.93;;;;;;;;;;5089646;28;20174;-76
2023/05/25 03:38:31;;;;;;;6.33;3.87;;;;;;;;;;5074779;28;20224;-76
2023/05/25 03:40:56;;;;;;;5.53;3.40;;;;;;;;;;5077339;28;20177;-76
2023/05/25 03:43:22;;;;;;;10.47;3.97;;;;;;;;;;5081081;28;20187;-76
2023/05/25 03:45:47;;;;;;;8.80;3.90;;;;;;;;;;5068169;28;20200;-76
2023/05/25 03:48:12;;;;;;;6.87;3.87;;;;;;;;;;5072135;28;20200;-76
2023/05/25 03:50:39;;;;;;;8.13;3.73;;;;;;;;;;5086600;28;20288;-76
2023/05/25 03:53:05;;;;;;;8.60;3.93;;;;;;;;;;5089347;28;20182;-76
2023/05/25 03:55:31;;;;;;;5.53;3.97;;;;;;;;;;5078436;28;20315;-76
2023/05/25 03:57:56;;;;;;;6.27;3.47;;;;;;;;;;5073835;28;20191;-76
2023/05/25 04:00:22;;;;;;;7.80;4.30;;;;;;;;;;5085936;28;20177;-76
2023/05/25 04:02:47;;;;;;;12.07;4.87;;;;;;;;;;5079545;28;20207;-76
2023/05/25 04:05:12;;;;;;;5.97;3.80;;;;;;;;;;5094783;28;20184;-76
2023/05/25 04:32:01;;;;;;;8.50;3.77;;;;;;;;;;5086895;28;20233;-76
2023/05/25 04:34:28;;;;;;;4.90;3.30;;;;;;;;;;5070231;28;20199;-76
2023/05/25 04:36:53;;;;;;;13.40;4.53;;;;;;;;;;5068758;28;20241;-76
2023/05/25 04:39:19;;;;;;;9.40;4.33;;;;;;;;;;5089760;28;20233;-76
2023/05/25 04:41:44;;;;;;;6.07;3.70;;;;;;;;;;5069194;28;20189;-76
2023/05/25 04:44:09;;;;;;;11.73;4.17;;;;;;;;;;5065783;28;20181;-76
2023/05/25 04:46:36;;;;;;;12.90;4.50;;;;;;;;;;5086616;28;20249;-76
2023/05/25 04:49:01;;;;;;;9.70;4.83;;;;;;;;;;5082170;28;20299;-76
2023/05/25 04:51:27;;;;;;;5.13;3.57;;;;;;;;;;5072081;28;20283;-76
2023/05/25 04:53:52;;;;;;;8.60;4.40;;;;;;;;;;5066390;28;20183;-76
2023/05/25 04:56:17;;;;;;;9.63;5.70;;;;;;;;;;5071054;28;20181;-76
2023/05/25 04:58:42;;;;;;;5.90;3.77;;;;;;;;;;5088402;28;20180;-76
2023/05/25 05:01:07;;;;;;;6.93;4.10;;;;;;;;;;5070749;28;20186;-76
2023/05/25 05:03:33;;;;;;;7.53;4.20;;;;;;;;;;5100068;28;20205;-76
2023/05/25 05:05:58;;;;;;;8.87;4.77;;;;;;;;;;5069276;28;20205;-75
2023/05/25 05:08:23;;;;;;;7.03;3.80;;;;;;;;;;5070432;28;20210;-76
2023/05/25 05:10:48;;;;;;;9.07;4.63;;;;;;;;;;5090434;28;20188;-75
2023/05/25 05:13:14;;;;;;;9.20;4.63;;;;;;;;;;5086822;28;20224;-75
2023/05/25 05:15:39;;;;;;;9.67;4.40;;;;;;;;;;5083418;28;20318;-76
2023/05/25 05:18:05;;;;;;;9.43;4.30;;;;;;;;;;5085309;28;20256;-76
2023/05/25 05:20:32;;;;;;;12.03;4.40;;;;;;;;;;5089250;28;20272;-76
2023/05/25 05:22:57;;;;;;;9.87;4.67;;;;;;;;;;5055305;28;20185;-76
2023/05/25 05:25:22;;;;;;;7.13;4.60;;;;;;;;;;5068362;28;20181;-76
2023/05/25 05:27:47;;;;;;;7.50;4.47;;;;;;;;;;5080833;28;20209;-75
2023/05/25 05:30:12;;;;;;;4.70;3.87;;;;;;;;;;5087203;28;20206;-75
2023/05/25 05:32:38;;;;;;;9.27;4.00;;;;;;;;;;5079975;28;20252;-75
2023/05/25 05:35:04;;;;;;;8.30;4.50;;;;;;;;;;5084160;28;20175;-75
2023/05/25 05:37:29;;;;;;;11.90;4.80;;;;;;;;;;5078147;28;20176;-76
2023/05/25 05:39:55;;;;;;;8.93;3.87;;;;;;;;;;5089638;28;20330;-75
2023/05/25 05:42:20;;;;;;;9.90;4.23;;;;;;;;;;5072668;28;20185;-76
2023/05/25 05:44:45;;;;;;;9.00;4.57;;;;;;;;;;5071530;28;20182;-75
2023/05/25 05:47:10;;;;;;;9.20;4.57;;;;;;;;;;5072540;28;20197;-75
2023/05/25 05:49:38;;;;;;;8.87;4.37;;;;;;;;;;5086223;28;20208;-75
2023/05/25 05:52:03;;;;;;;9.33;4.63;;;;;;;;;;5087577;28;20177;-75
2023/05/25 05:54:28;;;;;;;9.40;4.90;;;;;;;;;;5068456;28;20185;-75
2023/05/25 05:56:53;;;;;;;7.43;4.53;;;;;;;;;;5090902;28;20213;-75
2023/05/25 05:59:22;;;;;;;10.77;5.40;;;;;;;;;;5066268;28;20182;-76
2023/05/25 06:01:48;;;;;;;8.73;4.90;;;;;;;;;;5065398;28;20187;-75
2023/05/25 06:04:14;;;;;;;11.63;5.50;;;;;;;;;;5087727;28;20265;-75
2023/05/25 06:06:40;;;;;;;9.27;4.93;;;;;;;;;;5090376;28;20203;-75
2023/05/25 06:09:06;;;;;;;6.10;4.60;;;;;;;;;;5089978;28;20246;-75
2023/05/25 06:11:34;;;;;;;15.30;4.67;;;;;;;;;;5085451;28;20182;-75
2023/05/25 06:13:59;;;;;;;7.07;4.67;;;;;;;;;;5088217;28;20166;-75
2023/05/25 06:16:25;;;;;;;6.97;4.50;;;;;;;;;;5064791;28;20183;-75
2023/05/25 06:18:50;;;;;;;11.10;4.40;;;;;;;;;;5089601;28;20187;-75
2023/05/25 06:21:15;;;;;;;10.77;6.60;;;;;;;;;;5068988;28;20184;-75
2023/05/25 06:23:40;;;;;;;12.97;4.77;;;;;;;;;;5086691;28;20179;-76
2023/05/25 06:26:06;;;;;;;13.33;5.43;;;;;;;;;;5055689;28;20184;-76
2023/05/25 06:28:31;;;;;;;9.17;5.20;;;;;;;;;;5071636;28;20208;-75
2023/05/25 06:30:56;;;;;;;9.63;5.13;;;;;;;;;;5066737;28;20208;-75
2023/05/25 06:33:22;;;;;;;11.33;5.03;;;;;;;;;;5072728;28;20179;-75
2023/05/25 06:35:47;;;;;;;9.90;4.63;;;;;;;;;;5069352;28;20178;-75
2023/05/25 06:38:12;;;;;;;6.40;5.23;;;;;;;;;;5082730;28;20373;-75
2023/05/25 06:40:38;;;;;;;9.80;5.00;;;;;;;;;;5059196;28;20188;-75
2023/05/25 06:43:03;;;;;;;11.07;5.57;;;;;;;;;;5057689;28;20272;-75
2023/05/25 06:45:28;;;;;;;8.77;5.60;;;;;;;;;;5067435;28;20198;-75
2023/05/25 06:47:53;;;;;;;9.43;5.33;;;;;;;;;;5056662;28;20215;-75
2023/05/25 06:50:18;;;;;;;8.00;5.17;;;;;;;;;;5088622;28;20180;-76
2023/05/25 06:52:45;;;;;;;10.87;6.00;;;;;;;;;;5058945;28;20187;-75
2023/05/25 06:55:10;;;;;;;10.70;6.33;;;;;;;;;;5061700;28;20182;-75
2023/05/25 06:57:36;;;;;;;11.20;5.50;;;;;;;;;;5086450;28;20187;-75
2023/05/25 07:00:01;;;;;;;10.10;4.77;;;;;;;;;;5062966;28;20174;-75
2023/05/25 07:02:27;;;;;;;11.30;6.33;;;;;;;;;;5084122;28;20196;-75
2023/05/25 07:04:52;;;;;;;8.10;5.73;;;;;;;;;;5071226;28;20183;-75
2023/05/25 07:07:17;;;;;;;7.43;5.37;;;;;;;;;;5082524;28;20269;-75
2023/05/25 07:09:42;;;;;;;8.27;5.07;;;;;;;;;;5086252;28;20307;-75
2023/05/25 07:12:09;;;;;;;8.97;5.37;;;;;;;;;;5064935;28;20227;-75
2023/05/25 07:14:35;;;;;;;21.37;5.90;;;;;;;;;;5070094;28;20213;-75
2023/05/25 07:17:00;;;;;;;14.90;5.47;;;;;;;;;;5084866;28;20248;-75
2023/05/25 07:19:25;;;;;;;11.37;6.27;;;;;;;;;;5087861;28;20192;-75
2023/05/25 07:21:50;;;;;;;11.23;6.30;;;;;;;;;;5059244;28;20185;-76
2023/05/25 07:24:17;;;;;;;10.70;5.90;;;;;;;;;;5089025;28;20191;-76
2023/05/25 07:26:43;;;;;;;10.10;5.90;;;;;;;;;;5085219;28;20172;-76
2023/05/25 07:29:08;;;;;;;8.60;4.90;;;;;;;;;;5065043;28;20207;-76
2023/05/25 07:31:33;;;;;;;11.37;5.80;;;;;;;;;;5091047;28;20180;-76
2023/05/25 07:33:59;;;;;;;10.50;5.67;;;;;;;;;;5064441;28;20177;-76
2023/05/25 07:36:24;;;;;;;10.50;5.40;;;;;;;;;;5086650;28;20248;-74
2023/05/25 07:38:49;;;;;;;11.67;5.97;;;;;;;;;;5074170;28;20220;-74
2023/05/25 07:41:14;;;;;;;7.30;5.10;;;;;;;;;;5089592;28;20223;-74
2023/05/25 07:43:39;;;;;;;7.77;5.00;;;;;;;;;;5089576;28;20181;-74
2023/05/25 07:46:05;;;;;;;13.73;7.20;;;;;;;;;;5089271;28;20177;-74
2023/05/25 07:48:33;;;;;;;9.67;6.10;;;;;;;;;;5075745;28;20200;-74
2023/05/25 07:50:58;;;;;;;9.47;6.30;;;;;;;;;;5065512;28;20222;-75
2023/05/25 07:53:23;;;;;;;10.13;5.83;;;;;;;;;;5089558;28;20173;-74
2023/05/25 07:55:49;;;;;;;8.20;6.03;;;;;;;;;;5087216;28;20208;-74
2023/05/25 07:58:14;;;;;;;13.33;6.27;;;;;;;;;;5088061;28;20208;-74
2023/05/25 08:00:40;;;;;;;11.37;6.10;;;;;;;;;;5088122;28;20208;-74
2023/05/25 08:03:05;;;;;;;10.73;5.90;;;;;;;;;;5086152;28;20271;-74
2023/05/25 08:05:30;;;;;;;9.53;6.70;;;;;;;;;;5072787;28;20201;-74
2023/05/25 08:07:55;;;;;;;11.80;6.30;;;;;;;;;;5068507;28;20215;-74
2023/05/25 08:10:22;;;;;;;12.43;7.23;;;;;;;;;;5073901;28;20174;-74
2023/05/25 08:12:47;;;;;;;8.77;6.30;;;;;;;;;;5071681;28;20173;-74
2023/05/25 08:15:12;;;;;;;8.60;6.07;;;;;;;;;;5069177;28;20195;-74
2023/05/25 08:17:38;;;;;;;12.73;6.07;;;;;;;;;;5089161;28;20200;-74
2023/05/25 08:20:05;;;;;;;8.90;5.77;;;;;;;;;;5062438;28;20175;-74
2023/05/25 08:22:30;;;;;;;12.77;5.50;;;;;;;;;;5070609;28;20190;-74
2023/05/25 08:24:55;;;;;;;10.20;5.70;;;;;;;;;;5062463;28;20186;-74
2023/05/25 08:27:20;;;;;;;14.60;7.67;;;;;;;;;;5084580;28;20176;-74
2023/05/25 08:29:46;;;;;;;12.60;6.70;;;;;;;;;;5063475;28;20302;-74
2023/05/25 08:32:11;;;;;;;8.37;6.20;;;;;;;;;;5090151;28;20192;-74
2023/05/25 08:34:36;;;;;;;12.07;6.50;;;;;;;;;;5092514;28;20177;-74
2023/05/25 08:37:01;;;;;;;10.20;6.27;;;;;;;;;;5064253;28;20182;-74
2023/05/25 08:39:27;;;;;;;16.03;6.40;;;;;;;;;;5067204;28;20288;-74
2023/05/25 08:41:52;;;;;;;10.63;6.77;;;;;;;;;;5071151;28;20182;-74
2023/05/25 08:44:17;;;;;;;11.70;6.70;;;;;;;;;;5073254;28;20186;-74
2023/05/25 08:46:45;;;;;;;14.90;7.13;;;;;;;;;;5096147;28;20181;-74
2023/05/25 08:49:11;;;;;;;10.63;6.20;;;;;;;;;;5070405;28;20215;-74
2023/05/25 08:51:41;;;;;;;8.23;6.10;;;;;;;;;;5070395;28;20318;-74
2023/05/25 08:54:08;;;;;;;13.77;8.90;;;;;;;;;;5089697;28;20186;-74
2023/05/25 08:56:35;;;;;;;10.10;6.53;;;;;;;;;;5070795;28;20232;-73
2023/05/25 08:59:19;;;;;;;7.70;6.33;;;;;;;;;;5066186;28;20272;-74
2023/05/25 09:01:50;;;;;;;20.20;7.47;;;;;;;;;;5084993;28;20182;-74
2023/05/25 09:04:16;;;;;;;11.53;6.73;;;;;;;;;;5093497;28;20202;-74
2023/05/25 09:06:44;;;;;;;15.33;7.90;;;;;;;;;;5090650;28;20192;-74
2023/05/25 09:09:11;;;;;;;23.43;8.10;;;;;;;;;;5079724;28;20204;-74
2023/05/25 09:11:36;;;;;;;17.30;7.63;;;;;;;;;;5091993;28;20171;-74
2023/05/25 09:14:02;;;;;;;8.47;7.23;;;;;;;;;;5065772;28;20177;-74
2023/05/25 09:16:27;;;;;;;14.13;6.80;;;;;;;;;;5090574;28;20172;-74
2023/05/25 09:18:52;;;;;;;11.63;6.17;;;;;;;;;;5088224;28;20187;-74
2023/05/25 09:21:18;;;;;;;16.97;7.33;;;;;;;;;;5084514;28;20184;-74
2023/05/25 09:23:43;;;;;;;9.87;6.10;;;;;;;;;;5089966;28;20173;-74
2023/05/25 09:26:08;;;;;;;9.37;5.90;;;;;;;;;;5071208;28;20180;-74
2023/05/25 09:28:33;;;;;;;8.80;5.90;;;;;;;;;;5063998;28;20209;-74
2023/05/25 09:30:59;;;;;;;9.93;5.90;;;;;;;;;;5091907;28;20252;-74
2023/05/25 09:33:24;;;;;;;10.60;6.80;;;;;;;;;;5068816;28;20180;-74
2023/05/25 09:35:50;;;;;;;10.00;7.47;;;;;;;;;;5086361;28;20177;-74
2023/05/25 09:38:15;;;;;;;8.77;6.20;;;;;;;;;;5065791;28;20234;-74
2023/05/25 09:40:41;;;;;;;8.90;6.27;;;;;;;;;;5073082;28;20231;-74
2023/05/25 09:43:06;;;;;;;9.10;6.03;;;;;;;;;;5084503;28;20270;-74
2023/05/25 09:45:31;;;;;;;13.20;6.20;;;;;;;;;;5069361;28;20178;-74
2023/05/25 09:47:57;;;;;;;12.07;7.00;;;;;;;;;;5076379;28;20208;-74
2023/05/25 09:50:22;;;;;;;9.20;6.70;;;;;;;;;;5071442;28;20222;-74
2023/05/25 09:52:48;;;;;;;7.70;6.00;;;;;;;;;;5068878;28;20176;-74
2023/05/25 09:55:14;;;;;;;10.90;6.87;;;;;;;;;;5074552;28;20186;-74
2023/05/25 09:57:39;;;;;;;14.27;6.90;;;;;;;;;;5074369;28;20182;-74
2023/05/25 10:00:05;;;;;;;10.63;6.73;;;;;;;;;;5089926;28;20181;-74
2023/05/25 10:02:30;;;;;;;7.70;6.20;;;;;;;;;;5089182;28;20209;-74
2023/05/25 10:04:56;;;;;;;9.37;6.23;;;;;;;;;;5074020;28;20210;-74
2023/05/25 10:07:21;;;;;;;12.40;6.37;;;;;;;;;;5071544;28;20198;-74
2023/05/25 10:09:49;;;;;;;12.90;6.50;;;;;;;;;;5088128;28;20203;-74
2023/05/25 10:12:16;;;;;;;11.23;6.57;;;;;;;;;;5075320;28;20176;-74
2023/05/25 10:14:45;;;;;;;9.30;6.57;;;;;;;;;;5093402;28;20185;-75
2023/05/25 10:17:12;;;;;;;9.57;6.40;;;;;;;;;;5088335;28;20184;-74
2023/05/25 10:19:53;;;;;;;16.30;7.07;;;;;;;;;;5090093;28;20184;-74
2023/05/25 10:22:22;;;;;;;11.43;6.30;;;;;;;;;;5088253;28;20216;-74
2023/05/25 10:24:47;;;;;;;11.97;6.97;;;;;;;;;;5071365;28;20182;-74
2023/05/25 10:27:16;;;;;;;11.80;6.70;;;;;;;;;;5092483;28;20176;-74
2023/05/25 10:29:43;;;;;;;9.57;6.47;;;;;;;;;;5066475;28;20247;-74
2023/05/25 10:32:08;;;;;;;12.73;7.57;;;;;;;;;;5088159;28;20212;-74
2023/05/25 10:34:34;;;;;;;9.07;6.13;;;;;;;;;;5070469;28;20226;-74
2023/05/25 10:37:01;;;;;;;9.90;6.57;;;;;;;;;;5088800;28;20229;-75
2023/05/25 10:39:26;;;;;;;11.53;8.27;;;;;;;;;;5074450;28;20235;-74
2023/05/25 10:41:52;;;;;;;11.57;7.63;;;;;;;;;;5067204;28;20192;-74
2023/05/25 10:44:18;;;;;;;10.90;6.67;;;;;;;;;;5087939;28;20191;-74
2023/05/25 10:46:44;;;;;;;8.73;7.23;;;;;;;;;;5071944;28;20236;-74
2023/05/25 10:49:09;;;;;;;12.97;6.27;;;;;;;;;;5067583;28;20207;-74
2023/05/25 10:51:38;;;;;;;7.93;6.80;;;;;;;;;;5070017;28;20275;-75
2023/05/25 10:54:03;;;;;;;12.07;6.97;;;;;;;;;;5069339;28;20176;-74
2023/05/25 10:56:28;;;;;;;10.47;7.30;;;;;;;;;;5066055;28;20178;-74
2023/05/25 10:58:54;;;;;;;10.33;6.70;;;;;;;;;;5067770;28;20263;-74
2023/05/25 11:01:19;;;;;;;13.73;7.30;;;;;;;;;;5074267;28;20188;-74
2023/05/25 11:03:47;;;;;;;9.13;5.93;;;;;;;;;;5088593;28;20199;-74
2023/05/25 11:06:14;;;;;;;12.33;6.27;;;;;;;;;;5071864;28;20234;-74
2023/05/25 11:08:59;;;;;;;10.87;6.37;;;;;;;;;;5087424;28;20192;-74
2023/05/25 11:11:44;;;;;;;9.13;6.97;;;;;;;;;;5088940;28;20205;-74
2023/05/25 11:14:28;;;;;;;8.97;6.43;;;;;;;;;;5087658;28;20199;-74
2023/05/25 11:17:15;;;;;;;10.57;6.90;;;;;;;;;;5089099;28;20174;-74
2023/05/25 11:19:40;;;;;;;11.80;7.10;;;;;;;;;;5075033;28;20341;-75
2023/05/25 11:22:11;;;;;;;11.50;7.03;;;;;;;;;;5065214;28;20288;-75
2023/05/25 11:24:37;;;;;;;14.67;7.20;;;;;;;;;;5057680;28;20205;-74
2023/05/25 11:27:04;;;;;;;7.47;5.87;;;;;;;;;;5083767;28;20223;-74
2023/05/25 11:29:30;;;;;;;8.23;6.53;;;;;;;;;;5080447;28;20205;-74
2023/05/25 11:31:55;;;;;;;9.23;5.80;;;;;;;;;;5066356;28;20180;-73
2023/05/25 11:34:23;;;;;;;12.30;6.93;;;;;;;;;;5072254;28;20255;-74
2023/05/25 11:36:52;;;;;;;9.50;6.87;;;;;;;;;;5079286;28;20184;-74
2023/05/25 11:39:19;;;;;;;11.17;6.80;;;;;;;;;;5078286;28;20236;-74
2023/05/25 11:41:48;;;;;;;7.87;6.60;;;;;;;;;;5088313;28;20206;-74
2023/05/25 11:44:14;;;;;;;8.97;6.33;;;;;;;;;;5085504;28;20184;-73
2023/05/25 11:46:42;;;;;;;12.03;6.93;;;;;;;;;;5058138;28;20234;-74
2023/05/25 11:49:08;;;;;;;11.83;6.37;;;;;;;;;;5082718;28;20231;-74
2023/05/25 11:51:33;;;;;;;9.53;6.37;;;;;;;;;;5073253;28;20185;-74
2023/05/25 11:53:59;;;;;;;9.07;6.17;;;;;;;;;;5066341;28;20187;-74
2023/05/25 11:56:24;;;;;;;16.13;6.90;;;;;;;;;;5073595;28;20181;-74
2023/05/25 11:58:49;;;;;;;12.47;6.40;;;;;;;;;;5063811;28;20184;-74
2023/05/25 12:01:18;;;;;;;8.80;5.60;;;;;;;;;;5079588;28;20180;-74
2023/05/25 12:03:48;;;;;;;9.87;6.23;;;;;;;;;;5070611;28;20196;-74
2023/05/25 12:06:42;;;;;;;12.67;6.53;;;;;;;;;;5065664;28;20189;-74
2023/05/25 12:09:11;;;;;;;11.47;6.43;;;;;;;;;;5052721;28;20221;-74
2023/05/25 12:11:37;;;;;;;9.97;6.70;;;;;;;;;;5066778;28;20175;-74
2023/05/25 12:14:03;;;;;;;6.50;5.77;;;;;;;;;;5089070;28;20236;-74
2023/05/25 12:16:28;;;;;;;8.40;6.27;;;;;;;;;;5066118;28;20177;-74
2023/05/25 12:18:54;;;;;;;12.37;5.93;;;;;;;;;;5061989;28;20264;-74
2023/05/25 12:21:20;;;;;;;15.87;6.90;;;;;;;;;;5091468;28;20185;-74
2023/05/25 12:23:45;;;;;;;12.87;6.77;;;;;;;;;;5069278;28;20184;-74
2023/05/25 12:26:11;;;;;;;7.27;5.83;;;;;;;;;;5093740;28;20176;-74
2023/05/25 12:28:37;;;;;;;9.47;6.27;;;;;;;;;;5069328;28;20200;-74
2023/05/25 12:31:21;;;;;;;13.37;6.83;;;;;;;;;;5079846;28;20170;-74
2023/05/25 12:34:00;;;;;;;7.93;5.97;;;;;;;;;;5089363;28;20169;-74
2023/05/25 12:36:38;;;;;;;12.87;7.03;;;;;;;;;;5069513;28;20206;-74
2023/05/25 12:39:04;;;;;;;10.60;6.90;;;;;;;;;;5081917;28;20231;-74
2023/05/25 12:41:30;;;;;;;7.57;6.40;;;;;;;;;;5068911;28;20248;-74
2023/05/25 12:43:55;;;;;;;10.17;6.50;;;;;;;;;;5099947;28;20268;-74
2023/05/25 12:46:24;;;;;;;9.87;7.07;;;;;;;;;;5089844;28;20275;-74
2023/05/25 12:48:50;;;;;;;13.10;6.97;;;;;;;;;;5065879;28;20205;-74
2023/05/25 12:51:15;;;;;;;11.00;6.60;;;;;;;;;;5075787;28;20180;-74
2023/05/25 12:53:50;;;;;;;11.33;6.50;;;;;;;;;;5071121;28;20183;-74
2023/05/25 12:56:15;;;;;;;7.70;5.90;;;;;;;;;;5084864;28;20183;-74
2023/05/25 12:58:41;;;;;;;11.97;6.10;;;;;;;;;;5062604;28;20189;-74
2023/05/25 13:01:09;;;;;;;11.97;6.93;;;;;;;;;;5082717;28;20189;-74
2023/05/25 13:03:34;;;;;;;10.23;6.50;;;;;;;;;;5060404;28;20211;-74
2023/05/25 13:06:00;;;;;;;8.63;5.90;;;;;;;;;;5068669;28;20192;-74
2023/05/25 13:08:26;;;;;;;13.43;7.90;;;;;;;;;;5066047;28;20202;-74
2023/05/25 13:10:51;;;;;;;7.53;6.30;;;;;;;;;;5086155;28;20280;-74
2023/05/25 13:13:16;;;;;;;109.77;16.33;;;;;;;;;;5089031;28;20184;-74
2023/05/25 13:15:42;;;;;;;11.17;6.63;;;;;;;;;;5068153;28;20188;-74
2023/05/25 13:18:07;;;;;;;13.03;6.97;;;;;;;;;;5067219;28;20191;-74
2023/05/25 13:20:32;;;;;;;12.37;5.77;;;;;;;;;;5068867;28;20208;-74
2023/05/25 13:22:57;;;;;;;8.93;5.77;;;;;;;;;;5065871;28;20261;-74
2023/05/25 13:25:25;;;;;;;8.27;6.23;;;;;;;;;;5080165;28;20188;-74
2023/05/25 13:27:51;;;;;;;12.13;7.30;;;;;;;;;;5086374;28;20184;-74
2023/05/25 13:30:17;;;;;;;11.93;6.37;;;;;;;;;;5075479;28;20222;-74
2023/05/25 13:32:43;;;;;;;8.77;5.90;;;;;;;;;;5064337;28;20208;-74
2023/05/25 13:35:11;;;;;;;8.70;5.90;;;;;;;;;;5065013;28;20183;-74
2023/05/25 13:37:36;;;;;;;6.97;5.77;;;;;;;;;;5070929;28;20176;-74
2023/05/25 13:40:02;;;;;;;6.80;5.20;;;;;;;;;;5091810;28;20203;-74
2023/05/25 13:42:27;;;;;;;8.60;6.13;;;;;;;;;;5074285;28;20192;-74
2023/05/25 13:44:52;;;;;;;6.00;5.40;;;;;;;;;;5089004;28;20179;-74
2023/05/25 13:47:17;;;;;;;11.63;6.33;;;;;;;;;;5092016;28;20186;-74
2023/05/25 13:49:43;;;;;;;8.97;6.03;;;;;;;;;;5074460;28;20201;-74
2023/05/25 13:52:08;;;;;;;11.37;6.03;;;;;;;;;;5089476;28;20179;-74
2023/05/25 13:54:33;;;;;;;10.10;5.93;;;;;;;;;;5071990;28;20183;-74
2023/05/25 13:56:58;;;;;;;7.20;5.50;;;;;;;;;;5074705;28;20179;-74
2023/05/25 13:59:23;;;;;;;9.07;5.80;;;;;;;;;;5067437;28;20188;-74
2023/05/25 14:01:49;;;;;;;8.87;6.17;;;;;;;;;;5059220;28;20175;-74
2023/05/25 14:04:15;;;;;;;8.90;6.80;;;;;;;;;;5086428;28;20233;-74
2023/05/25 14:06:40;;;;;;;9.37;6.67;;;;;;;;;;5090468;28;20233;-74
2023/05/25 14:09:06;;;;;;;12.10;6.20;;;;;;;;;;5064797;28;20269;-74
2023/05/25 14:11:32;;;;;;;8.30;6.10;;;;;;;;;;5086804;28;20260;-74
2023/05/25 14:13:57;;;;;;;7.87;5.33;;;;;;;;;;5085114;28;20176;-74
2023/05/25 14:16:22;;;;;;;9.90;5.07;;;;;;;;;;5066364;28;20236;-74
2023/05/25 14:18:47;;;;;;;7.53;5.63;;;;;;;;;;5068282;28;20236;-74
2023/05/25 14:21:13;;;;;;;8.90;6.10;;;;;;;;;;5071065;28;20188;-76
2023/05/25 14:23:41;;;;;;;9.90;6.27;;;;;;;;;;5073631;28;20181;-75
2023/05/25 14:26:06;;;;;;;10.57;6.47;;;;;;;;;;5063315;28;20191;-75
2023/05/25 14:28:31;;;;;;;8.90;6.20;;;;;;;;;;5060976;28;20238;-75
2023/05/25 14:30:57;;;;;;;5.77;5.20;;;;;;;;;;5061544;28;20186;-74
2023/05/25 14:33:22;;;;;;;13.80;5.83;;;;;;;;;;5085618;28;20275;-75
2023/05/25 14:35:47;;;;;;;7.40;5.33;;;;;;;;;;5066263;28;20287;-75
2023/05/25 14:38:12;;;;;;;11.63;5.77;;;;;;;;;;5085055;28;20282;-74
2023/05/25 14:40:38;;;;;;;7.83;6.00;;;;;;;;;;5084336;28;20183;-74
2023/05/25 14:43:03;;;;;;;9.93;6.10;;;;;;;;;;5087585;28;20177;-74
2023/05/25 14:45:28;;;;;;;9.80;6.13;;;;;;;;;;5065954;28;20223;-74
2023/05/25 14:47:54;;;;;;;12.20;6.97;;;;;;;;;;5085604;28;20184;-74
2023/05/25 14:50:19;;;;;;;12.20;6.47;;;;;;;;;;5069220;28;20182;-74
2023/05/25 14:52:45;;;;;;;9.13;5.73;;;;;;;;;;5067066;28;20180;-74
2023/05/25 14:55:10;;;;;;;8.77;5.80;;;;;;;;;;5064911;28;20207;-75
2023/05/25 14:57:35;;;;;;;7.97;5.50;;;;;;;;;;5067190;28;20176;-74